createdAt,value
2019-02-23T00:00:34.167Z,99.90
2019-02-23T00:03:05.103Z,99.90
2019-02-23T00:05:35.477Z,99.90
2019-02-23T00:08:04.833Z,99.90
2019-02-23T00:10:34.139Z,99.90
2019-02-23T00:13:03.447Z,99.90
2019-02-23T00:15:32.746Z,99.90
2019-02-23T00:18:02.047Z,99.90
2019-02-23T00:20:31.358Z,99.90
2019-02-23T00:23:00.653Z,99.90
2019-02-23T00:25:29.979Z,99.90
2019-02-23T00:27:59.288Z,99.90
2019-02-23T00:30:29.676Z,99.90
2019-02-23T00:32:58.975Z,99.90
2019-02-23T00:35:28.283Z,99.90
2019-02-23T00:37:57.603Z,99.90
2019-02-23T00:40:26.934Z,99.90
2019-02-23T00:42:56.226Z,99.90
2019-02-23T00:45:25.543Z,99.90
2019-02-23T00:47:54.848Z,99.90
2019-02-23T00:50:24.160Z,99.90
2019-02-23T00:52:53.456Z,99.90
2019-02-23T00:55:22.847Z,99.90
2019-02-23T00:57:52.153Z,99.90
2019-02-23T01:00:21.459Z,99.90
2019-02-23T01:02:50.763Z,99.90
2019-02-23T01:05:20.096Z,99.90
2019-02-23T01:07:49.387Z,99.90
2019-02-23T01:10:19.561Z,99.90
2019-02-23T01:12:49.184Z,99.90
2019-02-23T01:15:19.167Z,99.90
2019-02-23T01:17:48.470Z,99.90
2019-02-23T01:20:17.862Z,99.90
2019-02-23T01:22:47.230Z,99.90
2019-02-23T01:25:16.698Z,99.90
2019-02-23T01:27:46.022Z,99.90
2019-02-23T01:30:15.334Z,99.90
2019-02-23T01:32:44.642Z,99.90
2019-02-23T01:35:14.043Z,99.90
2019-02-23T01:37:43.383Z,99.90
2019-02-23T01:40:12.687Z,99.90
2019-02-23T01:42:41.991Z,99.90
2019-02-23T01:45:11.565Z,99.90
2019-02-23T01:47:40.875Z,99.90
2019-02-23T01:50:11.515Z,99.90
2019-02-23T01:52:40.811Z,99.90
2019-02-23T01:55:10.115Z,99.90
2019-02-23T01:57:39.414Z,99.90
2019-02-23T02:00:11.756Z,99.90
2019-02-23T02:02:41.231Z,99.90
2019-02-23T02:05:10.799Z,99.90
2019-02-23T02:07:40.279Z,99.90
2019-02-23T02:10:10.216Z,99.90
2019-02-23T02:12:39.523Z,99.90
2019-02-23T02:15:12.238Z,99.90
2019-02-23T02:17:41.540Z,99.90
2019-02-23T02:20:11.626Z,99.90
2019-02-23T02:22:41.247Z,99.90
2019-02-23T02:25:10.710Z,99.90
2019-02-23T02:27:40.019Z,99.90
2019-02-23T02:30:11.085Z,99.90
2019-02-23T02:32:40.392Z,99.90
2019-02-23T02:35:10.838Z,99.90
2019-02-23T02:37:40.170Z,99.90
2019-02-23T02:40:10.019Z,99.90
2019-02-23T02:42:39.449Z,99.90
2019-02-23T02:45:10.731Z,99.90
2019-02-23T02:47:40.051Z,99.90
2019-02-23T02:50:23.114Z,99.90
2019-02-23T02:52:41.183Z,99.90
2019-02-23T02:55:10.500Z,99.90
2019-02-23T02:57:39.819Z,99.90
2019-02-23T03:00:11.848Z,99.90
2019-02-23T03:02:42.118Z,99.90
2019-02-23T03:05:11.659Z,99.90
2019-02-23T03:07:41.125Z,99.90
2019-02-23T03:10:10.455Z,99.90
2019-02-23T03:12:39.739Z,99.90
2019-02-23T03:15:09.112Z,99.90
2019-02-23T03:17:38.422Z,99.90
2019-02-23T03:20:08.722Z,99.90
2019-02-23T03:22:38.973Z,99.90
2019-02-23T03:25:08.344Z,99.90
2019-02-23T03:27:37.650Z,99.90
2019-02-23T03:30:09.718Z,99.90
2019-02-23T03:32:39.100Z,99.90
2019-02-23T03:35:08.476Z,99.90
2019-02-23T03:37:37.766Z,99.90
2019-02-23T03:40:08.724Z,99.90
2019-02-23T03:42:38.997Z,99.90
2019-02-23T03:45:08.531Z,99.90
2019-02-23T03:47:38.020Z,99.90
2019-02-23T03:50:07.997Z,99.90
2019-02-23T03:52:37.423Z,99.90
2019-02-23T03:55:06.911Z,99.90
2019-02-23T03:57:36.288Z,99.90
2019-02-23T04:00:08.745Z,99.90
2019-02-23T04:02:38.066Z,99.90
2019-02-23T04:05:07.374Z,99.90
2019-02-23T04:07:36.699Z,99.90
2019-02-23T04:10:07.431Z,99.90
2019-02-23T04:12:36.754Z,99.90
2019-02-23T04:15:07.015Z,99.90
2019-02-23T04:17:36.391Z,99.90
2019-02-23T04:20:07.640Z,99.90
2019-02-23T04:22:36.962Z,99.90
2019-02-23T04:25:07.993Z,99.90
2019-02-23T04:27:37.313Z,99.90
2019-02-23T04:30:08.812Z,99.90
2019-02-23T04:32:38.091Z,99.90
2019-02-23T04:35:08.364Z,99.90
2019-02-23T04:37:37.674Z,99.90
2019-02-23T04:40:07.646Z,99.90
2019-02-23T04:42:36.954Z,99.90
2019-02-23T04:45:07.605Z,99.90
2019-02-23T04:47:36.907Z,99.90
2019-02-23T04:50:09.542Z,99.90
2019-02-23T04:52:38.858Z,99.90
2019-02-23T04:55:08.984Z,99.90
2019-02-23T04:57:38.315Z,99.90
2019-02-23T05:00:13.390Z,99.90
2019-02-23T05:02:42.705Z,99.90
2019-02-23T05:05:12.368Z,99.90
2019-02-23T05:07:41.677Z,99.90
2019-02-23T05:10:10.998Z,99.90
2019-02-23T05:12:40.408Z,99.90
2019-02-23T05:15:10.829Z,99.90
2019-02-23T05:17:40.143Z,99.90
2019-02-23T05:20:09.465Z,99.90
2019-02-23T05:22:38.868Z,99.90
2019-02-23T05:25:08.176Z,99.90
2019-02-23T05:27:37.513Z,99.90
2019-02-23T05:30:09.961Z,99.90
2019-02-23T05:32:39.297Z,99.90
2019-02-23T05:35:12.849Z,99.90
2019-02-23T05:37:42.161Z,99.90
2019-02-23T05:40:14.251Z,99.90
2019-02-23T05:42:43.554Z,99.90
2019-02-23T05:45:12.998Z,99.90
2019-02-23T05:47:42.333Z,99.90
2019-02-23T05:50:11.634Z,99.90
2019-02-23T05:52:40.951Z,99.90
2019-02-23T05:55:10.278Z,99.90
2019-02-23T05:57:39.589Z,99.90
2019-02-23T06:00:13.563Z,99.90
2019-02-23T06:02:45.070Z,99.90
2019-02-23T06:05:13.928Z,99.90
2019-02-23T06:07:43.245Z,99.90
2019-02-23T06:10:12.667Z,99.90
2019-02-23T06:12:43.092Z,99.90
2019-02-23T06:15:13.074Z,99.90
2019-02-23T06:17:42.422Z,99.90
2019-02-23T06:20:11.784Z,99.90
2019-02-23T06:22:41.154Z,99.90
2019-02-23T06:25:10.464Z,99.90
2019-02-23T06:27:39.829Z,99.90
2019-02-23T06:30:11.818Z,99.90
2019-02-23T06:32:41.158Z,99.90
2019-02-23T06:35:10.726Z,99.90
2019-02-23T06:37:40.067Z,99.90
2019-02-23T06:40:10.793Z,99.90
2019-02-23T06:42:41.076Z,99.90
2019-02-23T06:45:12.108Z,99.90
2019-02-23T06:47:41.423Z,99.90
2019-02-23T06:50:10.731Z,99.90
2019-02-23T06:52:40.056Z,99.90
2019-02-23T06:55:09.383Z,99.90
2019-02-23T06:57:38.690Z,99.90
2019-02-23T07:00:11.075Z,99.90
2019-02-23T07:02:40.379Z,99.90
2019-02-23T07:05:09.763Z,99.90
2019-02-23T07:07:39.081Z,99.90
2019-02-23T07:10:11.435Z,99.90
2019-02-23T07:12:40.739Z,99.90
2019-02-23T07:15:11.030Z,99.90
2019-02-23T07:17:40.398Z,99.90
2019-02-23T07:20:10.767Z,99.90
2019-02-23T07:22:40.071Z,99.90
2019-02-23T07:25:16.237Z,99.90
2019-02-23T07:27:45.531Z,99.90
2019-02-23T07:30:15.011Z,99.90
2019-02-23T07:32:44.319Z,99.90
2019-02-23T07:35:14.592Z,99.90
2019-02-23T07:37:44.159Z,99.90
2019-02-23T07:40:15.011Z,99.90
2019-02-23T07:42:44.329Z,99.90
2019-02-23T07:48:08.282Z,99.90
2019-02-23T07:50:37.623Z,99.90
2019-02-23T07:53:06.935Z,99.90
2019-02-23T07:55:36.309Z,99.90
2019-02-23T07:58:05.611Z,99.90
2019-02-23T08:00:34.918Z,99.90
2019-02-23T08:06:02.351Z,99.90
2019-02-23T08:08:31.651Z,99.90
2019-02-23T08:11:01.221Z,99.90
2019-02-23T08:13:30.578Z,99.90
2019-02-23T08:15:59.975Z,99.90
2019-02-23T08:18:29.262Z,99.90
2019-02-23T08:20:58.577Z,99.90
2019-02-23T08:23:27.874Z,99.90
2019-02-23T08:25:57.212Z,99.90
2019-02-23T08:28:26.518Z,99.90
2019-02-23T08:30:55.840Z,99.90
2019-02-23T08:33:25.141Z,99.90
2019-02-23T08:35:54.447Z,99.90
2019-02-23T08:38:23.736Z,99.90
2019-02-23T08:40:53.062Z,99.90
2019-02-23T08:43:22.467Z,99.90
2019-02-23T08:45:51.784Z,99.90
2019-02-23T08:48:21.089Z,99.90
2019-02-23T08:50:50.417Z,99.90
2019-02-23T08:53:20.771Z,99.90
2019-02-23T08:55:50.203Z,99.90
2019-02-23T08:58:20.562Z,99.90
2019-02-23T09:00:49.892Z,99.90
2019-02-23T09:03:19.188Z,99.90
2019-02-23T09:05:49.586Z,99.90
2019-02-23T09:08:18.906Z,99.90
2019-02-23T09:10:48.311Z,99.90
2019-02-23T09:13:17.626Z,99.90
2019-02-23T09:15:46.970Z,99.90
2019-02-23T09:18:16.331Z,99.90
2019-02-23T09:20:45.652Z,99.90
2019-02-23T09:23:14.958Z,99.90
2019-02-23T09:25:44.265Z,99.90
2019-02-23T09:28:13.589Z,99.90
2019-02-23T09:30:42.978Z,99.90
2019-02-23T09:33:12.266Z,99.90
2019-02-23T09:35:41.655Z,99.90
2019-02-23T09:38:10.985Z,99.90
2019-02-23T09:40:40.381Z,99.90
2019-02-23T09:43:09.672Z,99.90
2019-02-23T09:45:39.006Z,99.90
2019-02-23T09:48:08.323Z,99.90
2019-02-23T09:50:37.647Z,99.90
2019-02-23T09:53:11.137Z,99.90
2019-02-23T09:55:37.950Z,99.90
2019-02-23T09:58:07.253Z,99.90
2019-02-23T10:00:36.573Z,99.90
2019-02-23T10:03:05.862Z,99.90
2019-02-23T10:05:35.201Z,99.90
2019-02-23T10:08:04.506Z,99.90
2019-02-23T10:10:33.847Z,99.90
2019-02-23T10:13:03.155Z,99.90
2019-02-23T10:15:32.522Z,99.90
2019-02-23T10:18:01.815Z,99.90
2019-02-23T10:20:31.157Z,99.90
2019-02-23T10:23:01.409Z,99.90
2019-02-23T10:25:30.754Z,99.90
2019-02-23T10:28:00.111Z,99.90
2019-02-23T10:30:29.445Z,99.90
2019-02-23T10:32:58.785Z,99.90
2019-02-23T10:35:28.126Z,99.90
2019-02-23T10:37:57.500Z,99.90
2019-02-23T10:40:26.817Z,99.90
2019-02-23T10:42:56.147Z,99.90
2019-02-23T10:45:25.443Z,99.90
2019-02-23T10:47:54.762Z,99.90
2019-02-23T10:50:25.036Z,99.90
2019-02-23T10:52:54.366Z,99.90
2019-02-23T10:55:23.663Z,99.90
2019-02-23T10:57:53.115Z,99.90
2019-02-23T11:00:22.810Z,99.90
2019-02-23T11:02:52.138Z,99.90
2019-02-23T11:05:21.670Z,99.90
2019-02-23T11:07:50.999Z,99.90
2019-02-23T11:10:20.648Z,99.30
2019-02-23T11:12:49.972Z,98.50
2019-02-23T11:15:20.445Z,99.00
2019-02-23T11:17:49.797Z,99.00
2019-02-23T11:23:09.295Z,98.60
2019-02-23T11:25:38.749Z,98.70
2019-02-23T11:28:08.379Z,97.60
2019-02-23T11:30:37.769Z,97.40
2019-02-23T11:33:07.209Z,98.20
2019-02-23T11:35:36.604Z,97.00
2019-02-23T11:38:07.192Z,97.40
2019-02-23T11:40:36.698Z,97.00
2019-02-23T11:43:08.302Z,96.70
2019-02-23T11:45:37.884Z,97.50
2019-02-23T11:48:07.443Z,96.40
2019-02-23T11:50:36.837Z,95.60
2019-02-23T11:53:06.236Z,96.60
2019-02-23T11:55:35.650Z,94.10
2019-02-23T11:58:05.079Z,95.50
2019-02-23T12:00:34.426Z,94.10
2019-02-23T12:03:03.957Z,93.10
2019-02-23T12:05:33.291Z,93.50
2019-02-23T12:08:02.716Z,91.50
2019-02-23T12:10:32.056Z,92.00
2019-02-23T12:13:01.471Z,93.00
2019-02-23T12:15:30.836Z,92.30
2019-02-23T12:18:00.198Z,93.00
2019-02-23T12:20:29.575Z,92.60
2019-02-23T12:22:58.974Z,94.50
2019-02-23T12:25:28.302Z,93.80
2019-02-23T12:27:58.661Z,93.80
2019-02-23T12:30:28.021Z,92.60
2019-02-23T12:32:57.481Z,93.00
2019-02-23T12:35:32.992Z,92.50
2019-02-23T12:38:02.514Z,93.10
2019-02-23T12:40:32.932Z,93.00
2019-02-23T12:43:02.576Z,92.80
2019-02-23T12:45:32.047Z,92.30
2019-02-23T12:48:01.395Z,93.30
2019-02-23T12:50:33.281Z,94.20
2019-02-23T12:53:01.867Z,92.20
2019-02-23T12:55:32.309Z,92.00
2019-02-23T12:58:01.694Z,91.40
2019-02-23T13:00:32.579Z,90.10
2019-02-23T13:03:02.098Z,90.00
2019-02-23T13:05:31.840Z,88.00
2019-02-23T13:08:03.459Z,89.60
2019-02-23T13:10:32.893Z,91.00
2019-02-23T13:13:17.204Z,90.40
2019-02-23T13:15:55.378Z,90.60
2019-02-23T13:18:53.806Z,90.10
2019-02-23T13:21:41.807Z,88.60
2019-02-23T13:24:37.186Z,83.90
2019-02-23T13:27:15.647Z,82.20
2019-02-23T13:30:12.211Z,82.40
2019-02-23T13:32:45.031Z,81.80
2019-02-23T13:35:32.779Z,85.90
2019-02-23T13:38:05.215Z,82.00
2019-02-23T13:40:55.506Z,75.10
2019-02-23T13:43:27.932Z,75.60
2019-02-23T13:46:09.295Z,75.70
2019-02-23T13:48:57.855Z,75.60
2019-02-23T13:51:54.034Z,72.10
2019-02-23T13:54:38.642Z,75.30
2019-02-23T13:57:22.631Z,71.00
2019-02-23T13:59:57.632Z,68.90
2019-02-23T14:02:34.203Z,74.20
2019-02-23T14:05:18.802Z,71.80
2019-02-23T14:07:56.789Z,70.60
2019-02-23T14:10:32.034Z,71.30
2019-02-23T14:13:07.421Z,72.20
2019-02-23T14:15:51.681Z,66.90
2019-02-23T14:18:52.782Z,68.40
2019-02-23T14:21:28.307Z,72.50
2019-02-23T14:24:08.632Z,72.10
2019-02-23T14:27:10.983Z,70.10
2019-02-23T14:29:54.477Z,72.00
2019-02-23T14:32:35.699Z,68.50
2019-02-23T14:35:17.248Z,67.50
2019-02-23T14:38:21.557Z,68.90
2019-02-23T14:40:56.478Z,68.40
2019-02-23T14:43:29.908Z,72.20
2019-02-23T14:46:31.325Z,71.00
2019-02-23T14:49:11.480Z,70.70
2019-02-23T14:52:02.797Z,73.00
2019-02-23T14:54:47.382Z,73.70
2019-02-23T14:57:42.432Z,72.30
2019-02-23T15:00:31.341Z,72.70
2019-02-23T15:03:26.792Z,71.70
2019-02-23T15:06:21.318Z,70.50
2019-02-23T15:08:53.755Z,71.60
2019-02-23T15:11:51.863Z,71.50
2019-02-23T15:14:51.224Z,73.10
2019-02-23T15:17:23.714Z,74.30
2019-02-23T15:20:20.018Z,77.50
2019-02-23T15:23:24.105Z,79.70
2019-02-23T15:26:32.965Z,82.90
2019-02-23T15:29:26.426Z,81.50
2019-02-23T15:32:04.785Z,82.40
2019-02-23T15:35:03.317Z,82.10
2019-02-23T15:37:35.739Z,80.90
2019-02-23T15:40:21.926Z,83.40
2019-02-23T15:43:03.448Z,83.20
2019-02-23T15:45:51.066Z,84.20
2019-02-23T15:48:38.343Z,85.70
2019-02-23T15:51:13.568Z,85.70
2019-02-23T15:53:43.036Z,87.20
2019-02-23T15:56:12.467Z,86.90
2019-02-23T15:58:42.946Z,88.10
2019-02-23T16:01:12.291Z,86.80
2019-02-23T16:03:42.742Z,86.50
2019-02-23T16:06:12.130Z,88.10
2019-02-23T16:08:41.569Z,88.00
2019-02-23T16:11:11.894Z,88.70
2019-02-23T16:13:41.295Z,87.10
2019-02-23T16:16:10.664Z,87.80
2019-02-23T16:18:40.181Z,87.10
2019-02-23T16:21:09.555Z,87.50
2019-02-23T16:23:38.984Z,88.10
2019-02-23T16:26:08.356Z,89.50
2019-02-23T16:28:37.801Z,89.20
2019-02-23T16:31:07.246Z,90.10
2019-02-23T16:33:36.766Z,90.70
2019-02-23T16:36:06.141Z,91.30
2019-02-23T16:38:38.506Z,91.70
2019-02-23T16:41:07.884Z,92.00
2019-02-23T16:43:38.175Z,92.20
2019-02-23T16:46:07.562Z,92.40
2019-02-23T16:48:36.935Z,92.00
2019-02-23T16:51:06.481Z,91.80
2019-02-23T16:53:35.911Z,91.80
2019-02-23T16:56:06.250Z,92.20
2019-02-23T16:58:36.412Z,92.70
2019-02-23T17:01:05.872Z,92.50
2019-02-23T17:03:35.286Z,93.60
2019-02-23T17:06:04.732Z,92.80
2019-02-23T17:08:34.085Z,93.00
2019-02-23T17:11:03.445Z,93.20
2019-02-23T17:13:32.884Z,92.60
2019-02-23T17:16:02.311Z,92.50
2019-02-23T17:18:31.670Z,92.40
2019-02-23T17:21:01.041Z,93.30
2019-02-23T17:23:30.413Z,93.40
2019-02-23T17:26:04.318Z,93.80
2019-02-23T17:28:30.833Z,93.60
2019-02-23T17:31:06.166Z,94.40
2019-02-23T17:33:35.542Z,95.10
2019-02-23T17:36:05.046Z,93.90
2019-02-23T17:38:34.506Z,93.10
2019-02-23T17:41:04.835Z,92.70
2019-02-23T17:43:35.251Z,92.50
2019-02-23T17:46:04.631Z,92.90
2019-02-23T17:48:34.089Z,92.60
2019-02-23T17:51:13.865Z,92.30
2019-02-23T17:53:43.232Z,93.30
2019-02-23T17:56:14.113Z,93.50
2019-02-23T17:58:43.714Z,93.70
2019-02-23T18:01:16.244Z,94.30
2019-02-23T18:03:45.597Z,94.60
2019-02-23T18:06:14.962Z,95.20
2019-02-23T18:08:44.406Z,96.00
2019-02-23T18:11:13.842Z,96.60
2019-02-23T18:13:43.301Z,97.00
2019-02-23T18:16:12.630Z,97.50
2019-02-23T18:18:42.048Z,98.10
2019-02-23T18:21:17.126Z,98.70
2019-02-23T18:23:46.468Z,99.10
2019-02-23T18:26:21.011Z,99.40
2019-02-23T18:28:47.336Z,99.50
2019-02-23T18:31:16.752Z,99.60
2019-02-23T18:33:46.133Z,99.30
2019-02-23T18:36:15.444Z,99.20
2019-02-23T18:38:48.580Z,99.10
2019-02-23T18:41:17.903Z,98.80
2019-02-23T18:43:47.250Z,98.40
2019-02-23T18:46:16.571Z,98.70
2019-02-23T18:48:45.973Z,97.80
2019-02-23T18:51:15.313Z,97.20
2019-02-23T18:53:44.646Z,96.90
2019-02-23T18:56:13.981Z,96.70
2019-02-23T18:58:49.446Z,96.70
2019-02-23T19:01:18.765Z,96.80
2019-02-23T19:03:51.389Z,96.30
2019-02-23T19:06:20.719Z,96.30
2019-02-23T19:08:50.091Z,96.40
2019-02-23T19:11:19.443Z,96.50
2019-02-23T19:13:48.831Z,96.70
2019-02-23T19:16:18.242Z,96.90
2019-02-23T19:18:47.594Z,97.00
2019-02-23T19:21:16.916Z,97.10
2019-02-23T19:23:46.268Z,96.80
2019-02-23T19:26:15.685Z,97.10
2019-02-23T19:28:45.026Z,97.30
2019-02-23T19:31:14.360Z,97.50
2019-02-23T19:33:45.746Z,97.70
2019-02-23T19:36:15.140Z,98.00
2019-02-23T19:38:46.117Z,98.00
2019-02-23T19:41:15.514Z,98.50
2019-02-23T19:43:52.831Z,98.90
2019-02-23T19:46:22.574Z,99.30
2019-02-23T19:48:57.656Z,99.20
2019-02-23T19:51:26.988Z,99.50
2019-02-23T19:53:58.374Z,99.60
2019-02-23T19:56:27.858Z,99.90
2019-02-23T19:58:57.241Z,99.90
2019-02-23T20:01:26.611Z,99.90
2019-02-23T20:03:55.964Z,99.90
2019-02-23T20:06:25.291Z,99.90
2019-02-23T20:09:00.428Z,99.90
2019-02-23T20:11:31.598Z,99.90
2019-02-23T20:14:00.946Z,99.90
2019-02-23T20:16:30.348Z,99.90
2019-02-23T20:19:03.394Z,99.90
2019-02-23T20:21:32.796Z,99.90
2019-02-23T20:24:03.290Z,99.90
2019-02-23T20:26:32.677Z,99.90
2019-02-23T20:29:02.153Z,99.90
2019-02-23T20:31:31.528Z,99.90
2019-02-23T20:34:01.090Z,99.90
2019-02-23T20:36:30.436Z,99.90
2019-02-23T20:38:59.900Z,99.90
2019-02-23T20:41:29.361Z,99.90
2019-02-23T20:43:58.724Z,99.90
2019-02-23T20:46:28.063Z,99.90
2019-02-23T20:48:57.635Z,99.90
2019-02-23T20:51:27.133Z,99.90
2019-02-23T20:53:56.498Z,99.90
2019-02-23T20:56:25.905Z,99.90
2019-02-23T20:58:57.161Z,99.90
2019-02-23T21:01:26.537Z,99.90
2019-02-23T21:03:55.950Z,99.90
2019-02-23T21:06:25.310Z,99.90
2019-02-23T21:09:00.465Z,99.90
2019-02-23T21:11:30.269Z,99.90
2019-02-23T21:13:59.599Z,99.90
2019-02-23T21:16:29.005Z,99.90
2019-02-23T21:18:58.440Z,99.90
2019-02-23T21:21:28.789Z,99.90
2019-02-23T21:23:58.228Z,99.90
2019-02-23T21:26:27.682Z,99.90
2019-02-23T21:28:57.073Z,99.90
2019-02-23T21:31:26.429Z,99.90
2019-02-23T21:33:55.824Z,99.90
2019-02-23T21:36:25.202Z,99.90
2019-02-23T21:38:54.549Z,99.90
2019-02-23T21:41:23.917Z,99.90
2019-02-23T21:43:53.319Z,99.90
2019-02-23T21:46:22.680Z,99.90
2019-02-23T21:48:52.023Z,99.90
2019-02-23T21:51:21.421Z,99.90
2019-02-23T21:53:50.765Z,99.90
2019-02-23T21:56:21.076Z,99.90
2019-02-23T21:58:50.472Z,99.90
2019-02-23T22:01:19.877Z,99.90
2019-02-23T22:03:49.377Z,99.90
2019-02-23T22:06:18.882Z,99.90
2019-02-23T22:08:49.249Z,99.90
2019-02-23T22:11:18.812Z,99.90
2019-02-23T22:13:48.202Z,99.90
2019-02-23T22:16:17.602Z,99.90
2019-02-23T22:18:53.387Z,99.90
2019-02-23T22:21:22.791Z,99.90
2019-02-23T22:23:52.252Z,99.90
2019-02-23T22:26:21.646Z,99.90
2019-02-23T22:28:51.966Z,99.90
2019-02-23T22:31:24.396Z,99.90
2019-02-23T22:33:53.773Z,99.90
2019-02-23T22:36:23.211Z,99.90
2019-02-23T22:38:52.652Z,99.90
2019-02-23T22:41:22.001Z,99.90
2019-02-23T22:43:58.084Z,99.90
2019-02-23T22:46:27.421Z,99.90
2019-02-23T22:49:05.772Z,99.90
2019-02-23T22:51:35.104Z,99.90
2019-02-23T22:54:04.484Z,99.90
2019-02-23T22:56:33.898Z,99.90
2019-02-23T22:59:03.375Z,99.90
2019-02-23T23:01:33.234Z,99.90
2019-02-23T23:04:02.754Z,99.90
2019-02-23T23:06:32.178Z,99.90
2019-02-23T23:09:01.536Z,99.90
2019-02-23T23:11:32.615Z,99.90
2019-02-23T23:14:02.045Z,99.90
2019-02-23T23:16:31.420Z,99.90
2019-02-23T23:19:01.093Z,99.90
2019-02-23T23:21:30.527Z,99.90
2019-02-23T23:23:59.971Z,99.90
2019-02-23T23:26:29.469Z,99.90
2019-02-23T23:28:58.829Z,99.90
2019-02-23T23:31:28.172Z,99.90
2019-02-23T23:33:57.563Z,99.90
2019-02-23T23:36:26.975Z,99.90
2019-02-23T23:39:02.638Z,99.90
2019-02-23T23:41:33.608Z,99.90
2019-02-23T23:44:03.042Z,99.90
2019-02-23T23:46:32.387Z,99.90
2019-02-23T23:49:02.758Z,99.90
2019-02-23T23:51:32.133Z,99.90
2019-02-23T23:54:01.536Z,99.90
2019-02-23T23:56:30.879Z,99.90
2019-02-23T23:59:00.247Z,99.90
